Time,TemperatureF,DewpointF,PressureIn,WindDirection,WindDirectionDegrees,WindSpeedMPH,WindSpeedGustMPH,Humidity,HourlyPrecipIn,Conditions,Clouds,dailyrainin,SoftwareType,DateUTC
2013-09-09 00:11:00,64.0,59.0,29.80,SW,226,0.0,0.0,83,0.00,,,0.00,,2013-09-09 07:11:00,
2013-09-09 00:21:00,63.0,58.0,29.80,SW,226,0.0,0.0,84,0.00,,,0.00,,2013-09-09 07:21:00,
2013-09-09 00:52:00,63.0,58.0,29.80,SW,226,0.0,0.0,83,0.00,,,0.00,,2013-09-09 07:52:00,
2013-09-09 01:11:00,63.0,57.0,29.80,ESE,119,1.0,4.0,81,0.00,,,0.00,,2013-09-09 08:11:00,
2013-09-09 01:21:00,64.0,56.0,29.79,ESE,108,0.0,4.0,76,0.00,,,0.00,,2013-09-09 08:21:00,
2013-09-09 01:52:00,64.0,57.0,29.80,East,96,0.0,0.0,77,0.00,,,0.00,,2013-09-09 08:52:00,
2013-09-09 02:11:00,63.0,56.0,29.79,East,95,1.0,4.0,79,0.00,,,0.00,,2013-09-09 09:11:00,
2013-09-09 02:22:00,63.0,57.0,29.79,East,95,0.0,0.0,81,0.00,,,0.00,,2013-09-09 09:22:00,
2013-09-09 02:53:00,65.0,56.0,29.78,East,94,2.0,4.0,73,0.00,,,0.00,,2013-09-09 09:53:00,
2013-09-09 03:23:00,64.0,56.0,29.77,East,92,0.0,0.0,75,0.00,,,0.00,,2013-09-09 10:23:00,
2013-09-09 03:52:00,64.0,56.0,29.76,East,92,0.0,0.0,75,0.00,,,0.00,,2013-09-09 10:52:00,
2013-09-09 04:11:00,63.0,56.0,29.76,East,92,0.0,0.0,79,0.00,,,0.00,,2013-09-09 11:11:00,
2013-09-09 04:21:00,63.0,56.0,29.76,East,92,0.0,0.0,78,0.00,,,0.00,,2013-09-09 11:21:00,
2013-09-09 04:52:00,62.0,56.0,29.75,East,92,0.0,0.0,81,0.00,,,0.00,,2013-09-09 11:52:00,
2013-09-09 05:11:00,64.0,57.0,29.76,East,92,0.0,0.0,79,0.00,,,0.00,,2013-09-09 12:11:00,
2013-09-09 05:22:00,63.0,57.0,29.76,East,92,0.0,0.0,81,0.00,,,0.00,,2013-09-09 12:22:00,
2013-09-09 05:52:00,60.0,55.0,29.77,East,92,0.0,0.0,85,0.00,,,0.00,,2013-09-09 12:52:00,
2013-09-09 06:11:00,61.0,56.0,29.77,East,92,0.0,0.0,84,0.00,,,0.00,,2013-09-09 13:11:00,
2013-09-09 06:21:00,60.0,56.0,29.78,East,92,0.0,0.0,86,0.00,,,0.00,,2013-09-09 13:21:00,
2013-09-09 06:52:00,60.0,56.0,29.78,East,92,0.0,0.0,86,0.00,,,0.00,,2013-09-09 13:52:00,
2013-09-09 07:12:00,60.0,56.0,29.78,East,92,0.0,0.0,87,0.00,,,0.00,,2013-09-09 14:12:00,
2013-09-09 07:21:00,60.0,56.0,29.78,East,92,0.0,0.0,87,0.00,,,0.00,,2013-09-09 14:21:00,
2013-09-09 07:52:00,61.0,57.0,29.79,East,92,0.0,0.0,87,0.00,,,0.00,,2013-09-09 14:52:00,
2013-09-09 08:11:00,62.0,57.0,29.79,East,92,0.0,0.0,85,0.00,,,0.00,,2013-09-09 15:11:00,
2013-09-09 08:22:00,62.0,56.0,29.79,East,92,0.0,0.0,81,0.00,,,0.00,,2013-09-09 15:22:00,
2013-09-09 08:53:00,64.0,58.0,29.80,East,92,0.0,0.0,81,0.00,,,0.00,,2013-09-09 15:53:00,
2013-09-09 09:13:00,66.0,58.0,29.80,East,92,0.0,0.0,75,0.00,,,0.00,,2013-09-09 16:13:00,
2013-09-09 11:52:00,77.0,60.0,29.79,SW,225,1.0,7.0,55,0.00,,,0.00,,2013-09-09 18:52:00,
2013-09-09 13:53:00,83.0,58.0,29.77,WSW,254,4.0,9.0,43,0.00,,,0.00,,2013-09-09 20:53:00,
2013-09-09 14:22:00,84.0,57.0,29.76,WSW,237,1.0,9.0,40,0.00,,,0.00,,2013-09-09 21:22:00,
2013-09-09 14:54:00,84.0,56.0,29.75,WSW,252,4.0,10.0,38,0.00,,,0.00,,2013-09-09 21:54:00,
2013-09-09 15:24:00,83.0,55.0,29.75,WSW,240,3.0,11.0,38,0.00,,,0.00,,2013-09-09 22:24:00,
2013-09-09 15:54:00,81.0,56.0,29.74,SW,236,3.0,10.0,42,0.00,,,0.00,,2013-09-09 22:54:00,
2013-09-09 16:12:00,82.0,56.0,29.74,WSW,252,3.0,10.0,41,0.00,,,0.00,,2013-09-09 23:12:00,
2013-09-09 16:22:00,81.0,55.0,29.73,SW,221,3.0,9.0,41,0.00,,,0.00,,2013-09-09 23:22:00,
2013-09-09 16:52:00,81.0,56.0,29.72,SW,221,2.0,7.0,42,0.00,,,0.00,,2013-09-09 23:52:00,
2013-09-09 17:12:00,80.0,57.0,29.73,WSW,252,3.0,10.0,46,0.00,,,0.00,,2013-09-10 00:12:00,
2013-09-09 17:21:00,78.0,57.0,29.72,SW,223,3.0,8.0,48,0.00,,,0.00,,2013-09-10 00:21:00,
2013-09-09 17:42:00,77.0,57.0,29.73,SW,217,3.0,8.0,51,0.00,,,0.00,,2013-09-10 00:42:00,
2013-09-09 17:52:00,76.0,58.0,29.73,WSW,254,0.0,8.0,54,0.00,,,0.00,,2013-09-10 00:52:00,
2013-09-09 18:11:00,75.0,58.0,29.72,WSW,256,2.0,7.0,56,0.00,,,0.00,,2013-09-10 01:11:00,
2013-09-09 18:21:00,73.0,58.0,29.72,West,271,3.0,8.0,59,0.00,,,0.00,,2013-09-10 01:21:00,
2013-09-09 18:42:00,71.0,58.0,29.73,West,271,2.0,7.0,64,0.00,,,0.00,,2013-09-10 01:42:00,
2013-09-09 18:52:00,70.0,58.0,29.73,West,271,0.0,1.0,66,0.00,,,0.00,,2013-09-10 01:52:00,
2013-09-09 19:12:00,70.0,59.0,29.73,West,271,0.0,1.0,68,0.00,,,0.00,,2013-09-10 02:12:00,
2013-09-09 19:22:00,68.0,58.0,29.74,West,271,0.0,1.0,71,0.00,,,0.00,,2013-09-10 02:22:00,
2013-09-09 19:42:00,67.0,58.0,29.74,West,277,0.0,1.0,74,0.00,,,0.00,,2013-09-10 02:42:00,
2013-09-09 19:52:00,66.0,58.0,29.74,West,277,0.0,0.0,75,0.00,,,0.00,,2013-09-10 02:52:00,
2013-09-09 20:12:00,65.0,58.0,29.74,West,277,0.0,3.0,77,0.00,,,0.00,,2013-09-10 03:12:00,
2013-09-09 20:22:00,64.0,57.0,29.75,West,277,0.0,3.0,79,0.00,,,0.00,,2013-09-10 03:22:00,
2013-09-09 20:54:00,63.0,57.0,29.75,West,277,0.0,0.0,82,0.00,,,0.00,,2013-09-10 03:54:00,
2013-09-09 21:24:00,62.0,57.0,29.77,West,277,0.0,0.0,85,0.00,,,0.00,,2013-09-10 04:24:00,
2013-09-09 21:53:00,60.0,56.0,29.78,West,277,0.0,1.0,88,0.00,,,0.00,,2013-09-10 04:53:00,
2013-09-09 22:23:00,60.0,57.0,29.79,West,277,0.0,0.0,90,0.00,,,0.00,,2013-09-10 05:23:00,
2013-09-09 22:53:00,59.0,56.0,29.80,West,277,0.0,0.0,91,0.00,,,0.00,,2013-09-10 05:53:00,
2013-09-09 23:22:00,59.0,57.0,29.80,West,277,0.0,0.0,92,0.00,,,0.00,,2013-09-10 06:22:00,
2013-09-09 23:52:00,59.0,57.0,29.80,West,277,0.0,0.0,92,0.00,,,0.00,,2013-09-10 06:52:00,